Terminal Aerodrome Forecast
Issued by NWS

Home | Current Version | Previous Version | Text Only | Print | Product List | Glossary On
Versions: 1 2 3 4 5 6 7 8 9 10 11 12 13 14 15 16 17 18 19 20 21 22 23 24
000
FTUS41 KCAR 180531
TAFBHB
TAF
KBHB 180531Z 1806/1906 00000KT P6SM SCT250
     FM181600 15007KT P6SM VCSH BKN100
     FM182000 14005KT 6SM -RA OVC050
     FM182300 14008KT 6SM -RA BR OVC015
     FM190100 15009KT 4SM -RA BR OVC008
     FM190300 14009KT 3SM -RA BR OVC003=

USA.gov is the U.S. government's official web portal to all federal, state and local government web resources and services.